sensor_id;sensor_type;location;lat;lon;timestamp;temperature;humidity
5118;DHT22;2578;51.622;7.046;2023-07-13T00:00:42;15.70;99.90
5118;DHT22;2578;51.622;7.046;2023-07-13T00:03:08;15.60;99.90
5118;DHT22;2578;51.622;7.046;2023-07-13T00:05:33;15.70;99.90
5118;DHT22;2578;51.622;7.046;2023-07-13T00:08:00;15.70;99.90
5118;DHT22;2578;51.622;7.046;2023-07-13T00:10:25;15.70;99.90
5118;DHT22;2578;51.622;7.046;2023-07-13T00:12:52;15.60;99.90
5118;DHT22;2578;51.622;7.046;2023-07-13T00:15:22;15.60;99.90
5118;DHT22;2578;51.622;7.046;2023-07-13T00:17:49;15.60;99.90
5118;DHT22;2578;51.622;7.046;2023-07-13T00:20:15;15.60;99.90
5118;DHT22;2578;51.622;7.046;2023-07-13T00:22:41;15.60;99.90
5118;DHT22;2578;51.622;7.046;2023-07-13T00:25:08;16.90;99.90
5118;DHT22;2578;51.622;7.046;2023-07-13T00:27:34;15.60;99.90
5118;DHT22;2578;51.622;7.046;2023-07-13T00:30:00;15.70;99.90
5118;DHT22;2578;51.622;7.046;2023-07-13T00:32:25;15.80;99.90
5118;DHT22;2578;51.622;7.046;2023-07-13T00:34:51;16.00;99.90
5118;DHT22;2578;51.622;7.046;2023-07-13T00:37:17;16.00;99.90
5118;DHT22;2578;51.622;7.046;2023-07-13T00:39:43;16.10;99.90
5118;DHT22;2578;51.622;7.046;2023-07-13T00:42:09;16.10;99.90
5118;DHT22;2578;51.622;7.046;2023-07-13T00:44:36;16.00;99.90
5118;DHT22;2578;51.622;7.046;2023-07-13T00:47:02;16.00;99.90
5118;DHT22;2578;51.622;7.046;2023-07-13T00:49:31;16.00;99.90
5118;DHT22;2578;51.622;7.046;2023-07-13T00:52:00;16.10;99.90
5118;DHT22;2578;51.622;7.046;2023-07-13T00:54:36;16.00;99.90
5118;DHT22;2578;51.622;7.046;2023-07-13T00:57:06;16.00;99.90
5118;DHT22;2578;51.622;7.046;2023-07-13T00:59:34;15.90;99.90
5118;DHT22;2578;51.622;7.046;2023-07-13T01:02:00;15.90;99.90
5118;DHT22;2578;51.622;7.046;2023-07-13T01:04:26;16.00;99.90
5118;DHT22;2578;51.622;7.046;2023-07-13T01:06:53;15.90;99.90
5118;DHT22;2578;51.622;7.046;2023-07-13T01:09:20;15.80;99.90
5118;DHT22;2578;51.622;7.046;2023-07-13T01:11:47;15.70;99.90
5118;DHT22;2578;51.622;7.046;2023-07-13T01:14:13;15.60;99.90
5118;DHT22;2578;51.622;7.046;2023-07-13T01:16:41;15.60;99.90
5118;DHT22;2578;51.622;7.046;2023-07-13T01:19:19;15.60;99.90
5118;DHT22;2578;51.622;7.046;2023-07-13T01:21:52;15.60;99.90
5118;DHT22;2578;51.622;7.046;2023-07-13T01:24:18;15.60;99.90
5118;DHT22;2578;51.622;7.046;2023-07-13T01:26:44;15.70;99.90
5118;DHT22;2578;51.622;7.046;2023-07-13T01:29:09;15.70;99.90
5118;DHT22;2578;51.622;7.046;2023-07-13T01:31:35;15.70;99.90
5118;DHT22;2578;51.622;7.046;2023-07-13T01:34:00;15.60;99.90
5118;DHT22;2578;51.622;7.046;2023-07-13T01:36:26;15.50;99.90
5118;DHT22;2578;51.622;7.046;2023-07-13T01:38:51;15.50;99.90
5118;DHT22;2578;51.622;7.046;2023-07-13T01:41:17;15.40;99.90
5118;DHT22;2578;51.622;7.046;2023-07-13T01:43:43;15.30;99.90
5118;DHT22;2578;51.622;7.046;2023-07-13T01:46:08;15.20;99.90
5118;DHT22;2578;51.622;7.046;2023-07-13T01:48:34;15.20;99.90
5118;DHT22;2578;51.622;7.046;2023-07-13T01:51:00;15.20;99.90
5118;DHT22;2578;51.622;7.046;2023-07-13T01:53:25;15.10;99.90
5118;DHT22;2578;51.622;7.046;2023-07-13T01:55:51;15.10;99.90
5118;DHT22;2578;51.622;7.046;2023-07-13T01:58:16;15.30;99.90
5118;DHT22;2578;51.622;7.046;2023-07-13T02:00:42;15.10;99.90
5118;DHT22;2578;51.622;7.046;2023-07-13T02:03:08;15.10;99.90
5118;DHT22;2578;51.622;7.046;2023-07-13T02:05:33;15.20;99.90
5118;DHT22;2578;51.622;7.046;2023-07-13T02:07:59;15.20;99.90
5118;DHT22;2578;51.622;7.046;2023-07-13T02:10:25;15.30;99.90
5118;DHT22;2578;51.622;7.046;2023-07-13T02:12:50;15.30;99.90
5118;DHT22;2578;51.622;7.046;2023-07-13T02:15:17;15.40;99.90
5118;DHT22;2578;51.622;7.046;2023-07-13T02:17:43;15.50;99.90
5118;DHT22;2578;51.622;7.046;2023-07-13T02:20:08;15.40;99.90
5118;DHT22;2578;51.622;7.046;2023-07-13T02:22:35;15.50;99.90
5118;DHT22;2578;51.622;7.046;2023-07-13T02:25:01;15.60;99.90
5118;DHT22;2578;51.622;7.046;2023-07-13T02:27:27;15.60;99.90
5118;DHT22;2578;51.622;7.046;2023-07-13T02:29:52;15.50;99.90
5118;DHT22;2578;51.622;7.046;2023-07-13T02:32:18;15.50;99.90
5118;DHT22;2578;51.622;7.046;2023-07-13T02:34:44;15.10;99.90
5118;DHT22;2578;51.622;7.046;2023-07-13T02:37:10;15.30;99.90
5118;DHT22;2578;51.622;7.046;2023-07-13T02:39:35;15.20;99.90
5118;DHT22;2578;51.622;7.046;2023-07-13T02:42:01;15.20;99.90
5118;DHT22;2578;51.622;7.046;2023-07-13T02:44:27;15.30;99.90
5118;DHT22;2578;51.622;7.046;2023-07-13T02:46:52;15.30;99.90
5118;DHT22;2578;51.622;7.046;2023-07-13T02:49:18;15.40;99.90
5118;DHT22;2578;51.622;7.046;2023-07-13T02:51:44;15.30;99.90
5118;DHT22;2578;51.622;7.046;2023-07-13T02:54:10;15.30;99.90
5118;DHT22;2578;51.622;7.046;2023-07-13T02:56:37;15.20;99.90
5118;DHT22;2578;51.622;7.046;2023-07-13T02:59:04;15.10;99.90
5118;DHT22;2578;51.622;7.046;2023-07-13T03:01:29;15.10;99.90
5118;DHT22;2578;51.622;7.046;2023-07-13T03:03:55;15.10;99.90
5118;DHT22;2578;51.622;7.046;2023-07-13T03:06:21;14.90;99.90
5118;DHT22;2578;51.622;7.046;2023-07-13T03:08:47;14.90;99.90
5118;DHT22;2578;51.622;7.046;2023-07-13T03:11:19;15.00;99.90
5118;DHT22;2578;51.622;7.046;2023-07-13T03:13:45;14.90;99.90
5118;DHT22;2578;51.622;7.046;2023-07-13T03:16:11;14.90;99.90
5118;DHT22;2578;51.622;7.046;2023-07-13T03:18:38;14.80;99.90
5118;DHT22;2578;51.622;7.046;2023-07-13T03:21:04;14.80;99.90
5118;DHT22;2578;51.622;7.046;2023-07-13T03:23:30;14.80;99.90
5118;DHT22;2578;51.622;7.046;2023-07-13T03:26:09;14.80;99.90
5118;DHT22;2578;51.622;7.046;2023-07-13T03:28:36;14.80;99.90
5118;DHT22;2578;51.622;7.046;2023-07-13T03:31:24;14.80;99.90
5118;DHT22;2578;51.622;7.046;2023-07-13T03:33:50;14.70;99.90
5118;DHT22;2578;51.622;7.046;2023-07-13T03:36:22;14.70;99.90
5118;DHT22;2578;51.622;7.046;2023-07-13T03:38:54;14.80;99.90
5118;DHT22;2578;51.622;7.046;2023-07-13T03:41:21;14.90;99.90
5118;DHT22;2578;51.622;7.046;2023-07-13T03:43:48;14.90;99.90
5118;DHT22;2578;51.622;7.046;2023-07-13T03:46:14;15.00;99.90
5118;DHT22;2578;51.622;7.046;2023-07-13T03:48:41;15.00;99.90
5118;DHT22;2578;51.622;7.046;2023-07-13T03:51:09;15.00;99.90
5118;DHT22;2578;51.622;7.046;2023-07-13T03:53:38;15.10;99.90
5118;DHT22;2578;51.622;7.046;2023-07-13T03:56:04;15.00;99.90
5118;DHT22;2578;51.622;7.046;2023-07-13T03:58:35;15.20;99.90
5118;DHT22;2578;51.622;7.046;2023-07-13T04:01:02;15.20;99.90
5118;DHT22;2578;51.622;7.046;2023-07-13T04:03:28;15.40;99.90
5118;DHT22;2578;51.622;7.046;2023-07-13T04:05:58;15.60;99.90
5118;DHT22;2578;51.622;7.046;2023-07-13T04:08:26;15.70;99.90
5118;DHT22;2578;51.622;7.046;2023-07-13T04:10:52;15.70;99.90
5118;DHT22;2578;51.622;7.046;2023-07-13T04:13:18;15.80;99.90
5118;DHT22;2578;51.622;7.046;2023-07-13T04:15:43;15.80;99.90
5118;DHT22;2578;51.622;7.046;2023-07-13T04:18:09;15.90;99.90
5118;DHT22;2578;51.622;7.046;2023-07-13T04:20:34;15.90;99.90
5118;DHT22;2578;51.622;7.046;2023-07-13T04:23:00;15.90;99.90
5118;DHT22;2578;51.622;7.046;2023-07-13T04:25:26;16.00;99.90
5118;DHT22;2578;51.622;7.046;2023-07-13T04:27:52;16.00;99.90
5118;DHT22;2578;51.622;7.046;2023-07-13T04:30:18;16.00;99.90
5118;DHT22;2578;51.622;7.046;2023-07-13T04:32:44;16.00;99.90
5118;DHT22;2578;51.622;7.046;2023-07-13T04:35:09;16.10;99.90
5118;DHT22;2578;51.622;7.046;2023-07-13T04:37:35;16.10;99.90
5118;DHT22;2578;51.622;7.046;2023-07-13T04:40:01;16.10;99.90
5118;DHT22;2578;51.622;7.046;2023-07-13T04:42:27;16.10;99.90
5118;DHT22;2578;51.622;7.046;2023-07-13T04:44:52;16.10;99.90
5118;DHT22;2578;51.622;7.046;2023-07-13T04:47:18;16.10;99.90
5118;DHT22;2578;51.622;7.046;2023-07-13T04:49:45;16.00;99.90
5118;DHT22;2578;51.622;7.046;2023-07-13T04:52:11;16.00;99.90
5118;DHT22;2578;51.622;7.046;2023-07-13T04:54:37;16.10;99.90
5118;DHT22;2578;51.622;7.046;2023-07-13T04:57:03;16.10;99.90
5118;DHT22;2578;51.622;7.046;2023-07-13T04:59:32;16.10;99.90
5118;DHT22;2578;51.622;7.046;2023-07-13T05:01:58;16.10;99.90
5118;DHT22;2578;51.622;7.046;2023-07-13T05:04:23;16.10;99.90
5118;DHT22;2578;51.622;7.046;2023-07-13T05:06:49;16.10;99.90
5118;DHT22;2578;51.622;7.046;2023-07-13T05:09:15;16.10;99.90
5118;DHT22;2578;51.622;7.046;2023-07-13T05:11:40;16.20;99.90
5118;DHT22;2578;51.622;7.046;2023-07-13T05:14:06;16.20;99.90
5118;DHT22;2578;51.622;7.046;2023-07-13T05:16:31;16.20;99.90
5118;DHT22;2578;51.622;7.046;2023-07-13T05:18:58;16.20;99.90
5118;DHT22;2578;51.622;7.046;2023-07-13T05:21:24;16.20;99.90
5118;DHT22;2578;51.622;7.046;2023-07-13T05:23:49;16.20;99.90
5118;DHT22;2578;51.622;7.046;2023-07-13T05:26:15;16.30;99.90
5118;DHT22;2578;51.622;7.046;2023-07-13T05:28:41;16.20;99.90
5118;DHT22;2578;51.622;7.046;2023-07-13T05:31:08;16.20;99.90
5118;DHT22;2578;51.622;7.046;2023-07-13T05:33:34;16.20;99.90
5118;DHT22;2578;51.622;7.046;2023-07-13T05:35:59;16.20;99.90
5118;DHT22;2578;51.622;7.046;2023-07-13T05:38:26;16.20;99.90
5118;DHT22;2578;51.622;7.046;2023-07-13T05:40:54;16.30;99.90
5118;DHT22;2578;51.622;7.046;2023-07-13T05:43:20;16.20;99.90
5118;DHT22;2578;51.622;7.046;2023-07-13T05:45:46;16.40;99.90
5118;DHT22;2578;51.622;7.046;2023-07-13T05:48:12;16.40;99.90
5118;DHT22;2578;51.622;7.046;2023-07-13T05:50:37;16.60;99.90
5118;DHT22;2578;51.622;7.046;2023-07-13T05:53:03;16.60;99.90
5118;DHT22;2578;51.622;7.046;2023-07-13T05:55:29;16.60;99.90
5118;DHT22;2578;51.622;7.046;2023-07-13T06:00:22;16.60;99.90
5118;DHT22;2578;51.622;7.046;2023-07-13T06:02:48;16.60;99.90
5118;DHT22;2578;51.622;7.046;2023-07-13T06:05:13;16.40;99.90
5118;DHT22;2578;51.622;7.046;2023-07-13T06:07:39;16.50;99.90
5118;DHT22;2578;51.622;7.046;2023-07-13T06:10:05;16.50;99.90
5118;DHT22;2578;51.622;7.046;2023-07-13T06:12:31;16.50;99.90
5118;DHT22;2578;51.622;7.046;2023-07-13T06:14:56;16.40;99.90
5118;DHT22;2578;51.622;7.046;2023-07-13T06:17:22;16.50;99.90
5118;DHT22;2578;51.622;7.046;2023-07-13T06:19:47;16.50;99.90
5118;DHT22;2578;51.622;7.046;2023-07-13T06:22:13;16.60;99.90
5118;DHT22;2578;51.622;7.046;2023-07-13T06:24:38;17.00;99.90
5118;DHT22;2578;51.622;7.046;2023-07-13T06:27:04;17.10;99.90
5118;DHT22;2578;51.622;7.046;2023-07-13T06:29:30;17.00;99.90
5118;DHT22;2578;51.622;7.046;2023-07-13T06:31:56;16.90;99.90
5118;DHT22;2578;51.622;7.046;2023-07-13T06:34:22;16.80;99.90
5118;DHT22;2578;51.622;7.046;2023-07-13T06:36:48;16.90;99.90
5118;DHT22;2578;51.622;7.046;2023-07-13T06:39:14;16.90;99.90
5118;DHT22;2578;51.622;7.046;2023-07-13T06:41:39;16.90;99.90
5118;DHT22;2578;51.622;7.046;2023-07-13T06:44:05;16.80;99.90
5118;DHT22;2578;51.622;7.046;2023-07-13T06:46:31;16.90;99.90
5118;DHT22;2578;51.622;7.046;2023-07-13T06:48:57;17.00;99.90
5118;DHT22;2578;51.622;7.046;2023-07-13T06:51:23;17.00;99.90
5118;DHT22;2578;51.622;7.046;2023-07-13T06:53:48;17.10;99.90
5118;DHT22;2578;51.622;7.046;2023-07-13T06:56:15;17.30;99.90
5118;DHT22;2578;51.622;7.046;2023-07-13T06:58:41;17.20;99.90
5118;DHT22;2578;51.622;7.046;2023-07-13T07:01:06;17.20;99.90
5118;DHT22;2578;51.622;7.046;2023-07-13T07:03:32;17.30;99.90
5118;DHT22;2578;51.622;7.046;2023-07-13T07:06:21;17.30;99.90
5118;DHT22;2578;51.622;7.046;2023-07-13T07:08:50;17.40;99.90
5118;DHT22;2578;51.622;7.046;2023-07-13T07:11:22;17.50;99.90
5118;DHT22;2578;51.622;7.046;2023-07-13T07:13:48;17.80;99.90
5118;DHT22;2578;51.622;7.046;2023-07-13T07:16:14;17.90;99.90
5118;DHT22;2578;51.622;7.046;2023-07-13T07:18:40;18.00;99.90
5118;DHT22;2578;51.622;7.046;2023-07-13T07:21:05;18.20;99.90
5118;DHT22;2578;51.622;7.046;2023-07-13T07:23:31;18.60;99.90
5118;DHT22;2578;51.622;7.046;2023-07-13T07:25:57;19.10;99.90
5118;DHT22;2578;51.622;7.046;2023-07-13T07:28:22;19.20;99.90
5118;DHT22;2578;51.622;7.046;2023-07-13T07:30:48;19.10;99.90
5118;DHT22;2578;51.622;7.046;2023-07-13T07:33:16;18.90;99.90
5118;DHT22;2578;51.622;7.046;2023-07-13T07:35:42;18.90;99.90
5118;DHT22;2578;51.622;7.046;2023-07-13T07:38:08;19.00;99.90
5118;DHT22;2578;51.622;7.046;2023-07-13T07:40:41;18.80;99.90
5118;DHT22;2578;51.622;7.046;2023-07-13T07:43:30;18.80;99.90
5118;DHT22;2578;51.622;7.046;2023-07-13T07:45:57;18.80;99.90
5118;DHT22;2578;51.622;7.046;2023-07-13T07:48:24;18.80;99.90
5118;DHT22;2578;51.622;7.046;2023-07-13T07:50:49;18.90;99.90
5118;DHT22;2578;51.622;7.046;2023-07-13T07:53:21;19.00;99.90
5118;DHT22;2578;51.622;7.046;2023-07-13T07:55:46;18.90;99.90
5118;DHT22;2578;51.622;7.046;2023-07-13T07:58:13;18.90;99.90
5118;DHT22;2578;51.622;7.046;2023-07-13T08:00:38;19.10;99.90
5118;DHT22;2578;51.622;7.046;2023-07-13T08:03:07;19.40;99.90
5118;DHT22;2578;51.622;7.046;2023-07-13T08:05:39;19.60;99.90
5118;DHT22;2578;51.622;7.046;2023-07-13T08:08:06;19.60;99.90
5118;DHT22;2578;51.622;7.046;2023-07-13T08:10:36;19.30;99.90
5118;DHT22;2578;51.622;7.046;2023-07-13T08:13:02;19.60;99.90
5118;DHT22;2578;51.622;7.046;2023-07-13T08:15:29;19.90;99.90
5118;DHT22;2578;51.622;7.046;2023-07-13T08:17:54;19.90;99.90
5118;DHT22;2578;51.622;7.046;2023-07-13T08:20:20;19.70;99.90
5118;DHT22;2578;51.622;7.046;2023-07-13T08:22:46;19.70;99.90
5118;DHT22;2578;51.622;7.046;2023-07-13T08:25:12;19.90;99.90
5118;DHT22;2578;51.622;7.046;2023-07-13T08:27:47;19.90;99.90
5118;DHT22;2578;51.622;7.046;2023-07-13T08:30:13;19.90;99.90
5118;DHT22;2578;51.622;7.046;2023-07-13T08:32:45;19.70;99.90
5118;DHT22;2578;51.622;7.046;2023-07-13T08:35:11;20.20;99.90
5118;DHT22;2578;51.622;7.046;2023-07-13T08:37:45;20.10;99.90
5118;DHT22;2578;51.622;7.046;2023-07-13T08:40:11;19.80;99.90
5118;DHT22;2578;51.622;7.046;2023-07-13T08:42:58;19.90;99.90
5118;DHT22;2578;51.622;7.046;2023-07-13T08:45:30;20.70;99.90
5118;DHT22;2578;51.622;7.046;2023-07-13T08:48:05;20.80;99.90
5118;DHT22;2578;51.622;7.046;2023-07-13T08:50:44;21.20;99.90
5118;DHT22;2578;51.622;7.046;2023-07-13T08:53:14;21.40;99.40
5118;DHT22;2578;51.622;7.046;2023-07-13T08:55:42;20.70;99.40
5118;DHT22;2578;51.622;7.046;2023-07-13T08:58:13;20.60;99.90
5118;DHT22;2578;51.622;7.046;2023-07-13T09:03:20;20.60;99.10
5118;DHT22;2578;51.622;7.046;2023-07-13T09:05:54;20.70;98.30
5118;DHT22;2578;51.622;7.046;2023-07-13T09:08:32;20.70;98.80
5118;DHT22;2578;51.622;7.046;2023-07-13T09:11:36;21.00;98.80
5118;DHT22;2578;51.622;7.046;2023-07-13T09:16:50;20.60;98.10
5118;DHT22;2578;51.622;7.046;2023-07-13T09:19:28;20.30;99.40
5118;DHT22;2578;51.622;7.046;2023-07-13T09:21:59;20.40;99.90
5118;DHT22;2578;51.622;7.046;2023-07-13T09:24:52;21.10;99.00
5118;DHT22;2578;51.622;7.046;2023-07-13T09:27:28;21.10;99.30
5118;DHT22;2578;51.622;7.046;2023-07-13T09:32:41;21.20;95.30
5118;DHT22;2578;51.622;7.046;2023-07-13T09:35:12;20.90;96.90
5118;DHT22;2578;51.622;7.046;2023-07-13T09:37:43;21.00;97.00
5118;DHT22;2578;51.622;7.046;2023-07-13T09:40:23;20.90;96.30
5118;DHT22;2578;51.622;7.046;2023-07-13T09:42:54;20.70;97.30
5118;DHT22;2578;51.622;7.046;2023-07-13T09:45:34;20.60;98.40
5118;DHT22;2578;51.622;7.046;2023-07-13T09:48:12;20.60;98.80
5118;DHT22;2578;51.622;7.046;2023-07-13T09:50:39;20.50;97.80
5118;DHT22;2578;51.622;7.046;2023-07-13T09:53:14;20.80;98.10
5118;DHT22;2578;51.622;7.046;2023-07-13T09:55:42;21.40;97.40
5118;DHT22;2578;51.622;7.046;2023-07-13T09:58:18;21.60;96.80
5118;DHT22;2578;51.622;7.046;2023-07-13T10:01:04;22.10;95.30
5118;DHT22;2578;51.622;7.046;2023-07-13T10:03:32;22.60;93.90
5118;DHT22;2578;51.622;7.046;2023-07-13T10:06:18;21.70;94.20
5118;DHT22;2578;51.622;7.046;2023-07-13T10:08:49;21.30;95.10
5118;DHT22;2578;51.622;7.046;2023-07-13T10:11:29;21.10;96.00
5118;DHT22;2578;51.622;7.046;2023-07-13T10:14:00;21.30;94.90
5118;DHT22;2578;51.622;7.046;2023-07-13T10:16:31;20.90;96.00
5118;DHT22;2578;51.622;7.046;2023-07-13T10:19:13;20.60;96.50
5118;DHT22;2578;51.622;7.046;2023-07-13T10:21:54;21.10;98.50
5118;DHT22;2578;51.622;7.046;2023-07-13T10:24:26;20.70;96.90
5118;DHT22;2578;51.622;7.046;2023-07-13T10:29:22;23.30;87.80
5118;DHT22;2578;51.622;7.046;2023-07-13T10:31:51;23.20;82.50
5118;DHT22;2578;51.622;7.046;2023-07-13T10:36:47;23.80;75.20
5118;DHT22;2578;51.622;7.046;2023-07-13T10:39:19;24.10;73.50
5118;DHT22;2578;51.622;7.046;2023-07-13T10:41:53;23.50;72.70
5118;DHT22;2578;51.622;7.046;2023-07-13T10:44:35;23.40;74.20
5118;DHT22;2578;51.622;7.046;2023-07-13T10:47:07;24.20;70.40
5118;DHT22;2578;51.622;7.046;2023-07-13T10:49:35;24.30;65.10
5118;DHT22;2578;51.622;7.046;2023-07-13T10:52:02;24.30;64.20
5118;DHT22;2578;51.622;7.046;2023-07-13T10:54:32;24.00;65.60
5118;DHT22;2578;51.622;7.046;2023-07-13T10:57:19;24.10;65.10
5118;DHT22;2578;51.622;7.046;2023-07-13T10:59:48;23.60;60.40
5118;DHT22;2578;51.622;7.046;2023-07-13T11:02:27;22.90;68.80
5118;DHT22;2578;51.622;7.046;2023-07-13T11:04:55;23.10;68.40
5118;DHT22;2578;51.622;7.046;2023-07-13T11:07:33;23.10;69.90
5118;DHT22;2578;51.622;7.046;2023-07-13T11:10:47;23.10;68.90
5118;DHT22;2578;51.622;7.046;2023-07-13T11:19:37;23.60;60.30
5118;DHT22;2578;51.622;7.046;2023-07-13T11:21:31;22.80;61.50
5118;DHT22;2578;51.622;7.046;2023-07-13T11:31:41;22.50;74.00
5118;DHT22;2578;51.622;7.046;2023-07-13T11:34:13;22.80;72.50
5118;DHT22;2578;51.622;7.046;2023-07-13T11:36:47;22.80;68.40
5118;DHT22;2578;51.622;7.046;2023-07-13T11:41:57;22.70;72.80
5118;DHT22;2578;51.622;7.046;2023-07-13T11:44:26;23.10;70.90
5118;DHT22;2578;51.622;7.046;2023-07-13T11:46:54;23.80;63.50
5118;DHT22;2578;51.622;7.046;2023-07-13T11:49:22;24.10;55.50
5118;DHT22;2578;51.622;7.046;2023-07-13T11:51:51;24.30;52.60
5118;DHT22;2578;51.622;7.046;2023-07-13T11:54:31;24.60;45.30
5118;DHT22;2578;51.622;7.046;2023-07-13T11:57:02;25.00;41.30
5118;DHT22;2578;51.622;7.046;2023-07-13T11:59:32;24.50;41.10
5118;DHT22;2578;51.622;7.046;2023-07-13T12:01:59;24.90;34.90
5118;DHT22;2578;51.622;7.046;2023-07-13T12:04:32;24.80;33.00
5118;DHT22;2578;51.622;7.046;2023-07-13T12:07:11;24.10;31.90
5118;DHT22;2578;51.622;7.046;2023-07-13T12:09:39;23.90;38.30
5118;DHT22;2578;51.622;7.046;2023-07-13T12:12:14;23.90;40.40
5118;DHT22;2578;51.622;7.046;2023-07-13T12:14:41;24.20;32.80
5118;DHT22;2578;51.622;7.046;2023-07-13T12:17:20;24.30;33.40
5118;DHT22;2578;51.622;7.046;2023-07-13T12:19:48;24.70;36.80
5118;DHT22;2578;51.622;7.046;2023-07-13T12:22:15;24.90;34.90
5118;DHT22;2578;51.622;7.046;2023-07-13T12:24:43;25.40;28.70
5118;DHT22;2578;51.622;7.046;2023-07-13T12:27:35;25.60;28.30
5118;DHT22;2578;51.622;7.046;2023-07-13T12:30:04;25.60;22.80
5118;DHT22;2578;51.622;7.046;2023-07-13T12:32:31;25.60;19.70
5118;DHT22;2578;51.622;7.046;2023-07-13T12:35:20;25.50;18.60
5118;DHT22;2578;51.622;7.046;2023-07-13T12:37:46;25.40;22.40
5118;DHT22;2578;51.622;7.046;2023-07-13T12:40:27;25.50;19.20
5118;DHT22;2578;51.622;7.046;2023-07-13T12:42:54;24.70;23.30
5118;DHT22;2578;51.622;7.046;2023-07-13T12:45:26;23.60;25.20
5118;DHT22;2578;51.622;7.046;2023-07-13T12:47:56;23.60;25.80
5118;DHT22;2578;51.622;7.046;2023-07-13T12:50:37;23.60;28.70
5118;DHT22;2578;51.622;7.046;2023-07-13T12:53:05;24.10;24.50
5118;DHT22;2578;51.622;7.046;2023-07-13T12:55:47;25.00;18.80
5118;DHT22;2578;51.622;7.046;2023-07-13T12:58:36;24.90;20.80
5118;DHT22;2578;51.622;7.046;2023-07-13T13:01:04;24.00;22.40
5118;DHT22;2578;51.622;7.046;2023-07-13T13:04:01;23.40;36.10
5118;DHT22;2578;51.622;7.046;2023-07-13T13:06:29;20.20;91.50
5118;DHT22;2578;51.622;7.046;2023-07-13T13:08:59;19.50;94.90
5118;DHT22;2578;51.622;7.046;2023-07-13T13:11:29;18.60;99.90
5118;DHT22;2578;51.622;7.046;2023-07-13T13:13:55;17.40;99.90
5118;DHT22;2578;51.622;7.046;2023-07-13T13:16:31;16.50;99.90
5118;DHT22;2578;51.622;7.046;2023-07-13T13:19:01;16.20;99.90
5118;DHT22;2578;51.622;7.046;2023-07-13T13:22:08;15.60;99.90
5118;DHT22;2578;51.622;7.046;2023-07-13T13:24:34;15.40;99.90
5118;DHT22;2578;51.622;7.046;2023-07-13T13:27:21;15.40;99.90
5118;DHT22;2578;51.622;7.046;2023-07-13T13:29:49;15.40;99.90
5118;DHT22;2578;51.622;7.046;2023-07-13T13:32:17;15.50;99.90
5118;DHT22;2578;51.622;7.046;2023-07-13T13:34:44;15.70;99.90
5118;DHT22;2578;51.622;7.046;2023-07-13T13:37:29;15.80;99.90
5118;DHT22;2578;51.622;7.046;2023-07-13T13:39:56;15.80;99.90
5118;DHT22;2578;51.622;7.046;2023-07-13T13:42:22;15.80;99.90
5118;DHT22;2578;51.622;7.046;2023-07-13T13:44:50;16.00;99.90
5118;DHT22;2578;51.622;7.046;2023-07-13T13:47:31;16.00;99.90
5118;DHT22;2578;51.622;7.046;2023-07-13T13:49:58;16.10;99.90
5118;DHT22;2578;51.622;7.046;2023-07-13T13:52:24;16.20;99.90
5118;DHT22;2578;51.622;7.046;2023-07-13T13:54:52;16.20;99.90
5118;DHT22;2578;51.622;7.046;2023-07-13T13:57:23;16.20;99.90
5118;DHT22;2578;51.622;7.046;2023-07-13T13:59:51;16.20;99.90
5118;DHT22;2578;51.622;7.046;2023-07-13T14:02:40;16.30;99.90
5118;DHT22;2578;51.622;7.046;2023-07-13T14:05:27;16.30;99.90
5118;DHT22;2578;51.622;7.046;2023-07-13T14:07:54;16.40;99.90
5118;DHT22;2578;51.622;7.046;2023-07-13T14:10:21;16.50;99.90
5118;DHT22;2578;51.622;7.046;2023-07-13T14:12:50;16.70;99.90
5118;DHT22;2578;51.622;7.046;2023-07-13T14:15:27;17.10;99.90
5118;DHT22;2578;51.622;7.046;2023-07-13T14:17:54;17.10;99.90
5118;DHT22;2578;51.622;7.046;2023-07-13T14:20:23;17.20;99.90
5118;DHT22;2578;51.622;7.046;2023-07-13T14:22:50;17.10;99.90
5118;DHT22;2578;51.622;7.046;2023-07-13T14:25:16;17.00;99.90
5118;DHT22;2578;51.622;7.046;2023-07-13T14:27:46;16.90;99.90
5118;DHT22;2578;51.622;7.046;2023-07-13T14:30:15;16.70;99.90
5118;DHT22;2578;51.622;7.046;2023-07-13T14:32:44;16.60;99.90
5118;DHT22;2578;51.622;7.046;2023-07-13T14:35:11;16.60;99.90
5118;DHT22;2578;51.622;7.046;2023-07-13T14:37:38;16.60;99.90
5118;DHT22;2578;51.622;7.046;2023-07-13T14:40:24;16.70;99.90
5118;DHT22;2578;51.622;7.046;2023-07-13T14:42:51;16.90;99.90
5118;DHT22;2578;51.622;7.046;2023-07-13T14:45:19;17.10;99.90
5118;DHT22;2578;51.622;7.046;2023-07-13T14:47:46;17.10;99.90
5118;DHT22;2578;51.622;7.046;2023-07-13T14:50:34;17.30;99.90
5118;DHT22;2578;51.622;7.046;2023-07-13T14:53:01;17.50;99.90
5118;DHT22;2578;51.622;7.046;2023-07-13T14:55:27;18.80;99.90
5118;DHT22;2578;51.622;7.046;2023-07-13T14:57:52;19.10;99.90
5118;DHT22;2578;51.622;7.046;2023-07-13T15:00:20;19.50;99.90
5118;DHT22;2578;51.622;7.046;2023-07-13T15:02:56;19.90;99.90
5118;DHT22;2578;51.622;7.046;2023-07-13T15:05:28;20.40;99.90
5118;DHT22;2578;51.622;7.046;2023-07-13T15:07:57;20.30;99.90
5118;DHT22;2578;51.622;7.046;2023-07-13T15:10:26;20.50;99.90
5118;DHT22;2578;51.622;7.046;2023-07-13T15:12:56;20.60;99.90
5118;DHT22;2578;51.622;7.046;2023-07-13T15:15:23;21.10;99.90
5118;DHT22;2578;51.622;7.046;2023-07-13T15:17:49;21.00;99.90
5118;DHT22;2578;51.622;7.046;2023-07-13T15:20:33;21.00;99.90
5118;DHT22;2578;51.622;7.046;2023-07-13T15:23:00;20.90;99.90
5118;DHT22;2578;51.622;7.046;2023-07-13T15:25:29;21.20;99.90
5118;DHT22;2578;51.622;7.046;2023-07-13T15:27:56;21.20;99.90
5118;DHT22;2578;51.622;7.046;2023-07-13T15:30:24;21.30;99.90
5118;DHT22;2578;51.622;7.046;2023-07-13T15:32:51;21.20;99.90
5118;DHT22;2578;51.622;7.046;2023-07-13T15:35:26;20.90;99.90
5118;DHT22;2578;51.622;7.046;2023-07-13T15:37:53;20.90;99.90
5118;DHT22;2578;51.622;7.046;2023-07-13T15:40:20;20.80;99.90
5118;DHT22;2578;51.622;7.046;2023-07-13T15:42:49;20.80;99.90
5118;DHT22;2578;51.622;7.046;2023-07-13T15:45:22;20.50;99.90
5118;DHT22;2578;51.622;7.046;2023-07-13T15:47:51;20.40;99.90
5118;DHT22;2578;51.622;7.046;2023-07-13T15:50:19;19.90;99.90
5118;DHT22;2578;51.622;7.046;2023-07-13T15:52:50;19.50;99.90
5118;DHT22;2578;51.622;7.046;2023-07-13T15:55:19;19.20;99.90
5118;DHT22;2578;51.622;7.046;2023-07-13T15:57:48;19.10;99.90
5118;DHT22;2578;51.622;7.046;2023-07-13T16:00:25;18.80;99.90
5118;DHT22;2578;51.622;7.046;2023-07-13T16:02:52;18.70;99.90
5118;DHT22;2578;51.622;7.046;2023-07-13T16:05:20;18.60;99.90
5118;DHT22;2578;51.622;7.046;2023-07-13T16:07:48;18.50;99.90
5118;DHT22;2578;51.622;7.046;2023-07-13T16:10:22;18.50;99.90
5118;DHT22;2578;51.622;7.046;2023-07-13T16:12:50;18.50;99.90
5118;DHT22;2578;51.622;7.046;2023-07-13T16:15:20;18.50;99.90
5118;DHT22;2578;51.622;7.046;2023-07-13T16:17:47;18.50;99.90
5118;DHT22;2578;51.622;7.046;2023-07-13T16:20:13;18.40;99.90
5118;DHT22;2578;51.622;7.046;2023-07-13T16:22:40;18.40;99.90
5118;DHT22;2578;51.622;7.046;2023-07-13T16:25:20;18.40;99.90
5118;DHT22;2578;51.622;7.046;2023-07-13T16:27:49;18.40;99.90
5118;DHT22;2578;51.622;7.046;2023-07-13T16:30:23;18.50;99.90
5118;DHT22;2578;51.622;7.046;2023-07-13T16:32:56;18.50;99.90
5118;DHT22;2578;51.622;7.046;2023-07-13T16:35:27;18.60;99.90
5118;DHT22;2578;51.622;7.046;2023-07-13T16:37:53;18.60;99.90
5118;DHT22;2578;51.622;7.046;2023-07-13T16:40:24;18.60;99.90
5118;DHT22;2578;51.622;7.046;2023-07-13T16:42:55;18.70;99.90
5118;DHT22;2578;51.622;7.046;2023-07-13T16:45:23;18.90;99.90
5118;DHT22;2578;51.622;7.046;2023-07-13T16:47:51;19.00;99.90